Time;durP1;ratioP1;P1;durP2;ratioP2;P2;SDS_P1;SDS_P2;PMS_P1;PMS_P2;Temp;Humidity;BMP_temperature;BMP_pressure;BME280_temperature;BME280_humidity;BME280_pressure;Samples;Min_cycle;Max_cycle;Signal;HPM_P1;HPM_P2
2022/04/23 00:01:01;;;;;;;4.80;3.42;;;20.30;43.60;19.40;100361.00;;;;5033678;28;20041;-70
2022/04/23 00:03:47;;;;;;;4.93;3.75;;;20.30;43.60;19.40;100358.00;;;;5037735;28;20052;-70
2022/04/23 00:06:33;;;;;;;4.25;3.38;;;20.30;43.60;19.40;100357.00;;;;5036359;28;20034;-70
2022/04/23 00:09:19;;;;;;;5.25;3.78;;;20.30;43.70;19.40;100355.00;;;;5039132;28;20621;-70
2022/04/23 00:12:06;;;;;;;3.97;3.20;;;20.30;43.70;19.40;100353.00;;;;5035705;28;20052;-70
2022/04/23 00:14:53;;;;;;;4.68;3.40;;;20.20;43.60;19.40;100352.00;;;;5033429;28;20049;-70
2022/04/23 00:17:39;;;;;;;4.27;3.33;;;20.20;43.60;19.40;100359.00;;;;5038720;28;20121;-70
2022/04/23 00:20:29;;;;;;;4.18;3.78;;;20.20;43.70;19.40;100350.00;;;;5034662;28;20314;-70
2022/04/23 00:23:15;;;;;;;4.70;3.88;;;20.30;43.70;19.40;100354.00;;;;5046236;28;20056;-70
2022/04/23 00:26:01;;;;;;;4.28;3.83;;;20.30;43.60;19.40;100352.00;;;;5040890;28;20490;-70
2022/04/23 00:28:47;;;;;;;5.13;4.28;;;20.20;43.70;19.40;100344.00;;;;5032194;28;20041;-70
2022/04/23 00:31:34;;;;;;;4.78;3.95;;;20.10;43.60;19.40;100347.00;;;;5026721;28;20072;-70
2022/04/23 00:34:20;;;;;;;5.53;3.93;;;20.20;43.70;19.40;100336.00;;;;5045555;28;20036;-70
2022/04/23 00:37:07;;;;;;;10.20;5.07;;;20.20;43.70;19.40;100332.00;;;;5023288;28;20038;-70
2022/04/23 00:39:53;;;;;;;5.00;4.38;;;20.30;43.80;19.40;100333.00;;;;5040278;28;20391;-70
2022/04/23 00:42:50;;;;;;;6.40;4.70;;;20.30;43.70;19.40;100338.00;;;;5036599;28;20049;-70
2022/04/23 00:45:37;;;;;;;4.85;4.18;;;20.20;43.80;19.40;100334.00;;;;5026308;28;20126;-70
2022/04/23 00:48:26;;;;;;;5.30;4.40;;;20.20;43.70;19.40;100339.00;;;;5034088;28;20370;-70
2022/04/23 00:51:13;;;;;;;5.07;4.30;;;20.20;43.70;19.40;100338.00;;;;5015283;28;20038;-70
2022/04/23 00:54:10;;;;;;;6.10;4.53;;;20.20;43.80;19.40;100341.00;;;;5010680;28;20124;-70
2022/04/23 00:56:56;;;;;;;4.97;4.47;;;20.20;43.80;19.40;100346.00;;;;5034764;28;20054;-70
2022/04/23 00:59:43;;;;;;;5.22;4.43;;;20.30;43.80;19.40;100336.00;;;;5036885;28;20445;-70
2022/04/23 01:02:29;;;;;;;5.97;4.60;;;20.20;43.80;19.40;100336.00;;;;5008897;28;20052;-70
2022/04/23 01:05:15;;;;;;;6.38;4.47;;;20.20;43.80;19.40;100343.00;;;;5041410;28;20576;-70
2022/04/23 01:08:04;;;;;;;5.07;4.15;;;20.20;43.80;19.40;100335.00;;;;5037755;28;20053;-70
2022/04/23 01:10:50;;;;;;;4.97;4.28;;;20.20;43.80;19.40;100338.00;;;;5020203;28;20503;-70
2022/04/23 01:13:36;;;;;;;5.70;4.70;;;20.20;43.80;19.40;100342.00;;;;5029024;28;20041;-70
2022/04/23 01:16:22;;;;;;;5.80;4.57;;;20.20;43.90;19.40;100342.00;;;;5037523;28;20660;-70
2022/04/23 01:19:08;;;;;;;5.68;4.43;;;20.20;43.90;19.40;100336.00;;;;5025179;28;20041;-70
2022/04/23 01:21:54;;;;;;;7.40;4.80;;;20.20;43.90;19.40;100343.00;;;;5034823;28;20560;-70
2022/04/23 01:24:40;;;;;;;6.28;4.90;;;20.20;43.90;19.40;100349.00;;;;5024148;28;20056;-70
2022/04/23 01:27:28;;;;;;;4.90;4.05;;;20.20;44.00;19.40;100342.00;;;;5018071;28;20045;-70
2022/04/23 01:30:14;;;;;;;5.38;4.55;;;20.20;44.00;19.40;100339.00;;;;5026218;28;20033;-70
2022/04/23 01:33:00;;;;;;;5.25;4.50;;;20.30;44.00;19.30;100334.00;;;;5006317;28;20044;-70
2022/04/23 01:35:46;;;;;;;5.57;4.53;;;20.20;44.00;19.40;100340.00;;;;5039545;28;20045;-71
2022/04/23 01:38:32;;;;;;;4.93;4.43;;;20.20;44.00;19.40;100333.00;;;;5031032;28;20041;-70
2022/04/23 01:41:18;;;;;;;6.93;5.05;;;20.20;44.00;19.30;100343.00;;;;5033182;28;20049;-70
2022/04/23 01:44:05;;;;;;;5.60;4.70;;;20.20;44.00;19.30;100338.00;;;;5037295;28;20103;-70
2022/04/23 01:46:51;;;;;;;6.85;5.28;;;20.20;44.00;19.30;100341.00;;;;5037604;28;20045;-70
2022/04/23 01:49:37;;;;;;;7.00;4.57;;;20.20;44.00;19.30;100338.00;;;;5013074;28;20040;-70
2022/04/23 01:52:23;;;;;;;6.32;4.90;;;20.50;44.20;19.30;100339.00;;;;5034378;28;20090;-70
2022/04/23 01:55:09;;;;;;;6.57;5.13;;;20.10;44.00;19.30;100344.00;;;;5040680;28;20049;-70
2022/04/23 01:57:55;;;;;;;5.13;4.63;;;20.20;44.10;19.30;100344.00;;;;5027087;28;20051;-70
2022/04/23 02:00:41;;;;;;;5.28;4.78;;;20.10;44.00;19.30;100340.00;;;;5036848;28;20041;-70
2022/04/23 02:03:28;;;;;;;5.60;4.80;;;20.20;44.10;19.30;100337.00;;;;5040025;28;20102;-70
2022/04/23 02:06:15;;;;;;;6.05;4.90;;;20.20;44.10;19.30;100342.00;;;;5038681;28;20049;-70
2022/04/23 02:09:02;;;;;;;6.43;5.68;;;20.20;44.00;19.30;100336.00;;;;5035290;28;20473;-70
2022/04/23 02:11:48;;;;;;;6.40;5.13;;;20.20;44.10;19.30;100335.00;;;;5041275;28;20033;-70
2022/04/23 02:14:35;;;;;;;6.15;4.82;;;20.20;44.10;19.30;100340.00;;;;5035195;28;20055;-70
2022/04/23 02:17:21;;;;;;;6.82;4.95;;;20.20;44.10;19.30;100330.00;;;;5047139;28;20036;-70
2022/04/23 02:20:12;;;;;;;6.07;5.00;;;20.20;44.10;19.30;100321.00;;;;5037091;28;20092;-70
2022/04/23 02:22:58;;;;;;;6.60;5.05;;;20.10;44.10;19.30;100325.00;;;;5030510;28;20053;-70
2022/04/23 02:25:44;;;;;;;6.13;4.97;;;20.20;44.90;19.30;100322.00;;;;5037886;28;20045;-70
2022/04/23 02:28:30;;;;;;;6.35;5.15;;;20.10;44.10;19.30;100320.00;;;;5040220;28;20048;-70
2022/04/23 02:31:16;;;;;;;6.72;5.15;;;20.10;44.10;19.30;100313.00;;;;5030371;28;20041;-70
2022/04/23 02:34:02;;;;;;;5.97;4.88;;;20.10;44.20;19.30;100320.00;;;;5035478;28;20551;-70
2022/04/23 02:36:48;;;;;;;5.70;5.00;;;20.10;44.20;19.30;100331.00;;;;5040784;28;20033;-70
2022/04/23 02:39:34;;;;;;;5.80;5.20;;;20.20;44.30;19.30;100322.00;;;;5044771;28;20720;-70
2022/04/23 02:42:20;;;;;;;5.85;4.57;;;20.10;44.20;19.30;100320.00;;;;5040706;28;20037;-70
2022/04/23 02:45:11;;;;;;;6.47;4.82;;;20.10;44.30;19.30;100321.00;;;;5049321;28;20667;-70
2022/04/23 02:47:57;;;;;;;5.32;4.82;;;20.10;44.30;19.30;100317.00;;;;5021094;28;20121;-70
2022/04/23 02:50:43;;;;;;;5.95;4.82;;;20.10;44.20;19.30;100325.00;;;;5039393;28;20033;-70
2022/04/23 02:53:29;;;;;;;5.93;4.80;;;20.10;44.30;19.30;100324.00;;;;5047272;28;20040;-70
2022/04/23 02:56:17;;;;;;;5.40;4.40;;;20.10;44.30;19.30;100318.00;;;;5039991;28;20048;-70
2022/04/23 02:59:03;;;;;;;5.40;4.40;;;20.10;44.40;19.30;100319.00;;;;5046361;28;20041;-70
2022/04/23 03:01:49;;;;;;;5.47;4.93;;;20.00;44.40;19.30;100319.00;;;;5033470;28;20084;-70
2022/04/23 03:04:35;;;;;;;5.25;4.45;;;20.10;44.40;19.30;100321.00;;;;5039743;28;20041;-71
2022/04/23 03:07:21;;;;;;;7.18;5.03;;;20.10;44.40;19.30;100313.00;;;;5038314;28;20037;-70
2022/04/23 03:10:10;;;;;;;7.53;4.88;;;20.10;44.40;19.20;100317.00;;;;5042785;28;20034;-70
2022/04/23 03:12:57;;;;;;;5.63;4.82;;;20.10;44.40;19.20;100306.00;;;;5036899;28;20397;-70
2022/04/23 03:15:45;;;;;;;5.68;4.65;;;20.10;44.40;19.20;100314.00;;;;5021882;28;20550;-70
2022/04/23 03:18:31;;;;;;;4.80;4.15;;;20.00;44.40;19.20;100318.00;;;;5041325;28;20058;-70
2022/04/23 03:21:17;;;;;;;4.78;3.92;;;20.10;44.40;19.20;100320.00;;;;5025367;28;20050;-70
2022/04/23 03:24:03;;;;;;;7.30;4.38;;;20.10;44.50;19.20;100322.00;;;;5030652;28;20421;-70
2022/04/23 03:26:49;;;;;;;4.88;4.32;;;20.10;44.40;19.20;100323.00;;;;5047440;28;20675;-70
2022/04/23 03:29:35;;;;;;;5.75;4.28;;;20.10;44.50;19.20;100324.00;;;;5035750;28;20049;-70
2022/04/23 03:32:22;;;;;;;4.55;4.05;;;20.10;44.50;19.20;100331.00;;;;5040562;28;20037;-71
2022/04/23 03:35:08;;;;;;;5.07;4.57;;;20.10;44.50;19.20;100325.00;;;;5037387;28;20109;-70
2022/04/23 03:37:55;;;;;;;4.40;3.70;;;20.00;44.50;19.20;100322.00;;;;5041049;28;20685;-70
2022/04/23 03:40:41;;;;;;;5.30;4.20;;;20.10;44.60;19.20;100319.00;;;;5022327;28;20050;-70
2022/04/23 03:43:27;;;;;;;5.13;3.75;;;20.00;44.50;19.20;100317.00;;;;5034328;28;20049;-70
2022/04/23 03:46:15;;;;;;;4.18;3.70;;;20.00;44.60;19.20;100319.00;;;;5021888;28;20037;-70
2022/04/23 03:49:01;;;;;;;4.78;4.03;;;20.00;44.50;19.20;100309.00;;;;5039216;28;20092;-70
2022/04/23 03:51:47;;;;;;;4.15;3.67;;;20.00;44.60;19.20;100315.00;;;;5037122;28;20044;-71
2022/04/23 03:54:33;;;;;;;4.15;3.75;;;20.00;44.60;19.20;100308.00;;;;5042006;28;20552;-70
2022/04/23 03:57:19;;;;;;;4.03;3.50;;;20.00;44.60;19.20;100315.00;;;;5041944;28;20040;-71
2022/04/23 04:00:06;;;;;;;4.28;3.88;;;20.00;44.70;19.20;100315.00;;;;5043472;28;22259;-70
2022/04/23 04:02:54;;;;;;;3.93;3.37;;;20.00;44.70;19.20;100307.00;;;;5025486;28;20049;-70
2022/04/23 04:05:40;;;;;;;4.65;3.75;;;20.00;44.70;19.20;100311.00;;;;5022286;28;20045;-70
2022/04/23 04:08:27;;;;;;;3.90;3.58;;;20.00;44.70;19.20;100305.00;;;;5039921;28;20045;-70
2022/04/23 04:11:13;;;;;;;4.55;3.63;;;20.00;44.80;19.20;100310.00;;;;5013943;28;20127;-70
2022/04/23 04:13:59;;;;;;;4.15;3.75;;;20.00;44.70;19.20;100311.00;;;;5048637;28;20045;-70
2022/04/23 04:16:49;;;;;;;3.95;3.45;;;20.00;44.80;19.20;100308.00;;;;5037415;28;20111;-70
2022/04/23 04:19:35;;;;;;;3.65;3.35;;;20.00;44.60;19.20;100304.00;;;;5014259;28;20048;-70
2022/04/23 04:22:21;;;;;;;4.75;3.30;;;20.00;44.70;19.20;100299.00;;;;5009248;28;20413;-70
2022/04/23 04:25:09;;;;;;;4.38;3.55;;;20.00;44.70;19.20;100295.00;;;;5038963;28;20053;-71
2022/04/23 04:27:55;;;;;;;;;;;20.00;44.70;19.10;100301.00;;;;5028705;28;20743;-70
2022/04/23 04:33:46;;;;;;;3.65;3.05;;;20.00;44.60;19.20;100303.00;;;;5044492;28;20045;-70
2022/04/23 04:36:33;;;;;;;3.78;3.45;;;20.00;44.70;19.10;100296.00;;;;5043486;28;20044;-70
2022/04/23 04:39:19;;;;;;;4.03;3.63;;;20.00;44.70;19.10;100293.00;;;;5037226;28;20057;-70
2022/04/23 04:42:06;;;;;;;3.40;3.10;;;20.00;44.80;19.20;100307.00;;;;5026889;28;20040;-70
2022/04/23 04:44:52;;;;;;;4.22;3.35;;;19.90;44.70;19.10;100297.00;;;;5024124;28;20052;-70
2022/04/23 04:47:38;;;;;;;3.85;3.40;;;20.00;44.90;19.10;100309.00;;;;5044754;28;20041;-70
2022/04/23 04:50:24;;;;;;;4.13;3.53;;;20.00;44.90;19.20;100300.00;;;;5022785;28;20045;-71
2022/04/23 04:53:10;;;;;;;4.88;3.30;;;19.90;44.80;19.20;100303.00;;;;5043640;28;20474;-70
2022/04/23 04:55:57;;;;;;;3.53;3.08;;;19.90;44.70;19.10;100299.00;;;;5039261;28;20045;-71
2022/04/23 04:59:02;;;;;;;5.05;3.78;;;19.90;44.80;19.20;100308.00;;;;5040910;28;20524;-70
2022/04/23 05:01:49;;;;;;;3.75;3.40;;;20.00;44.90;19.10;100306.00;;;;5042193;28;20041;-71
2022/04/23 05:04:35;;;;;;;3.10;2.80;;;19.90;44.70;19.20;100301.00;;;;5036282;28;20839;-70
2022/04/23 05:07:21;;;;;;;4.05;3.10;;;20.00;44.80;19.20;100312.00;;;;5034804;28;20037;-70
2022/04/23 05:10:08;;;;;;;4.28;3.22;;;20.00;44.90;19.20;100317.00;;;;5035600;28;20045;-70
2022/04/23 05:12:54;;;;;;;3.38;2.97;;;19.90;44.70;19.20;100318.00;;;;5047036;28;20087;-70
2022/04/23 05:15:40;;;;;;;3.58;3.28;;;20.00;44.70;19.20;100321.00;;;;5040316;28;20048;-71
2022/04/23 05:18:26;;;;;;;3.70;3.28;;;20.00;44.70;19.20;100312.00;;;;5037557;28;20100;-70
2022/04/23 05:21:12;;;;;;;3.30;3.00;;;19.90;44.70;19.20;100316.00;;;;5044175;28;20077;-70
2022/04/23 05:23:58;;;;;;;3.38;2.90;;;20.00;44.80;19.20;100318.00;;;;5038693;28;20078;-70
2022/04/23 05:26:44;;;;;;;4.00;3.20;;;20.00;44.80;19.20;100323.00;;;;5037612;28;20041;-70
2022/04/23 05:29:30;;;;;;;4.47;3.17;;;20.00;44.70;19.20;100322.00;;;;5037563;28;20684;-70
2022/04/23 05:32:16;;;;;;;4.32;3.15;;;20.00;44.70;19.20;100319.00;;;;5038054;28;20095;-70
2022/04/23 05:35:02;;;;;;;3.22;2.95;;;20.00;44.80;19.20;100331.00;;;;5038360;28;20049;-70
2022/04/23 05:37:48;;;;;;;4.47;3.30;;;20.00;44.60;19.10;100334.00;;;;5043218;28;20125;-70
2022/04/23 05:40:34;;;;;;;4.75;3.22;;;19.90;44.50;19.10;100319.00;;;;5037886;28;20056;-70
2022/04/23 05:43:21;;;;;;;4.03;3.15;;;20.00;44.60;19.20;100325.00;;;;5023716;28;20574;-70
2022/04/23 05:46:07;;;;;;;3.55;2.80;;;19.90;44.50;19.10;100331.00;;;;5042867;28;20832;-70
2022/04/23 05:48:53;;;;;;;4.50;3.13;;;19.90;44.50;19.20;100331.00;;;;5046025;28;20049;-70
2022/04/23 05:51:39;;;;;;;3.40;3.10;;;19.90;44.50;19.10;100338.00;;;;5040824;28;20041;-70
2022/04/23 05:54:25;;;;;;;3.78;3.10;;;19.90;44.50;19.10;100337.00;;;;5046585;28;20052;-70
2022/04/23 05:57:11;;;;;;;3.85;3.03;;;20.00;44.50;19.10;100336.00;;;;5043892;28;20036;-70
2022/04/23 05:59:57;;;;;;;3.13;2.83;;;20.00;44.40;19.10;100342.00;;;;5036721;28;20041;-70
2022/04/23 06:02:44;;;;;;;3.03;2.72;;;19.90;44.30;19.10;100346.00;;;;5032168;28;20663;-70
2022/04/23 06:05:30;;;;;;;3.58;3.13;;;19.90;44.40;19.10;100346.00;;;;5040920;28;20033;-70
2022/04/23 06:08:16;;;;;;;3.53;3.08;;;19.90;44.40;19.10;100348.00;;;;5034727;28;20049;-70
2022/04/23 06:11:02;;;;;;;3.70;3.22;;;19.90;44.30;19.10;100350.00;;;;5034090;28;20045;-70
2022/04/23 06:13:48;;;;;;;3.33;2.70;;;19.90;44.40;19.10;100350.00;;;;5042974;28;20044;-70
2022/04/23 06:16:37;;;;;;;3.35;2.90;;;19.90;44.30;19.10;100351.00;;;;5043659;28;20049;-70
2022/04/23 06:19:23;;;;;;;3.58;2.55;;;19.90;44.30;19.10;100354.00;;;;5038738;28;20071;-70
2022/04/23 06:22:09;;;;;;;3.25;2.75;;;19.90;44.10;19.10;100359.00;;;;5022027;28;20049;-70
2022/04/23 06:24:55;;;;;;;3.60;2.85;;;19.90;44.30;19.10;100360.00;;;;5036221;28;20049;-70
2022/04/23 06:27:41;;;;;;;4.38;3.15;;;19.90;44.90;19.10;100357.00;;;;5035576;28;20041;-70
2022/04/23 06:30:27;;;;;;;4.15;2.70;;;19.90;44.20;19.10;100358.00;;;;5041209;28;20033;-70
2022/04/23 06:33:16;;;;;;;4.47;3.08;;;19.90;44.10;19.10;100355.00;;;;5035855;28;20118;-70
2022/04/23 06:36:02;;;;;;;4.30;2.95;;;19.90;44.10;19.10;100359.00;;;;5035358;28;20589;-70
2022/04/23 06:38:48;;;;;;;3.55;2.80;;;19.90;44.10;19.10;100357.00;;;;5040604;28;20036;-70
2022/04/23 06:41:34;;;;;;;4.35;3.15;;;19.90;44.00;19.10;100353.00;;;;5030300;28;20044;-70
2022/04/23 06:44:20;;;;;;;4.47;3.20;;;19.90;44.00;19.10;100357.00;;;;5038144;28;20053;-70
2022/04/23 06:47:06;;;;;;;3.70;2.85;;;20.00;44.10;19.10;100360.00;;;;5022615;28;20045;-70
2022/04/23 06:49:54;;;;;;;5.88;3.10;;;20.00;44.00;19.10;100351.00;;;;5034373;28;20076;-70
2022/04/23 06:52:40;;;;;;;4.25;3.65;;;19.90;43.80;19.10;100361.00;;;;5036761;28;20040;-70
2022/04/23 06:55:26;;;;;;;5.93;4.00;;;19.90;43.70;19.10;100352.00;;;;5023693;28;20114;-72
2022/04/23 06:58:12;;;;;;;4.97;3.50;;;20.00;43.60;19.10;100356.00;;;;5039804;28;20041;-70
2022/04/23 07:00:58;;;;;;;5.10;3.78;;;20.00;43.50;19.10;100353.00;;;;5038128;28;20037;-70
2022/04/23 07:03:45;;;;;;;3.58;2.90;;;20.00;43.50;19.10;100359.00;;;;5027978;28;20049;-71
2022/04/23 07:06:31;;;;;;;4.32;3.28;;;20.00;43.60;19.10;100356.00;;;;5034861;28;20048;-70
2022/04/23 07:09:17;;;;;;;4.07;3.33;;;19.90;43.60;19.10;100348.00;;;;5035800;28;20462;-70
2022/04/23 07:12:07;;;;;;;5.05;3.60;;;20.00;43.60;19.10;100353.00;;;;5037485;28;20034;-70
2022/04/23 07:14:53;;;;;;;3.78;3.38;;;20.00;43.70;19.10;100360.00;;;;5036172;28;20045;-70
2022/04/23 07:17:39;;;;;;;3.53;2.88;;;20.00;43.70;19.10;100360.00;;;;5042431;28;20052;-70
2022/04/23 07:20:25;;;;;;;5.03;3.70;;;20.00;43.70;19.10;100353.00;;;;5034044;28;20041;-70
2022/04/23 07:26:16;;;;;;;4.40;3.20;;;20.00;43.70;19.10;100359.00;;;;5041206;28;20056;-70
2022/04/23 07:29:05;;;;;;;6.55;3.30;;;20.00;43.70;19.10;100356.00;;;;5036039;28;20033;-71
2022/04/23 07:31:51;;;;;;;7.07;2.95;;;20.00;43.60;19.10;100357.00;;;;5031184;28;20102;-70
2022/04/23 07:37:42;;;;;;;3.35;2.92;;;20.00;43.60;19.10;100356.00;;;;5043190;28;20033;-70
2022/04/23 07:40:28;;;;;;;3.90;3.33;;;20.00;43.70;19.10;100353.00;;;;5036582;28;20041;-70
2022/04/23 07:43:14;;;;;;;3.90;3.22;;;20.00;43.70;19.10;100364.00;;;;5052324;28;20033;-70
2022/04/23 07:46:00;;;;;;;4.57;3.42;;;19.90;43.60;19.10;100363.00;;;;5035926;28;20083;-70
2022/04/23 07:48:46;;;;;;;4.18;3.45;;;20.00;43.70;19.10;100358.00;;;;5039378;28;20041;-70
2022/04/23 07:51:32;;;;;;;5.53;3.97;;;19.90;43.60;19.10;100359.00;;;;5039465;28;20036;-71
2022/04/23 07:54:18;;;;;;;3.65;3.35;;;20.00;43.70;19.10;100367.00;;;;5041579;28;20037;-70
2022/04/23 07:57:08;;;;;;;4.25;3.47;;;20.00;43.60;19.10;100363.00;;;;5048057;28;20067;-70
2022/04/23 07:59:55;;;;;;;3.88;3.20;;;20.00;43.60;19.10;100363.00;;;;5039581;28;20037;-70
2022/04/23 08:02:41;;;;;;;4.70;3.85;;;20.00;43.70;19.10;100359.00;;;;5038363;28;20037;-70
2022/04/23 08:05:27;;;;;;;4.90;3.83;;;19.90;43.50;19.10;100355.00;;;;5037179;28;20037;-70
2022/04/23 08:08:17;;;;;;;4.65;3.60;;;20.00;43.60;19.10;100360.00;;;;5040011;28;20034;-71
2022/04/23 08:11:03;;;;;;;4.22;3.80;;;19.90;43.60;19.10;100363.00;;;;5026600;28;20048;-70
2022/04/23 08:13:52;;;;;;;5.25;3.78;;;19.90;43.60;19.10;100358.00;;;;5019412;28;20091;-70
2022/04/23 08:16:38;;;;;;;3.97;3.53;;;19.90;43.60;19.10;100355.00;;;;5042202;28;20052;-71
2022/04/23 08:19:24;;;;;;;5.25;3.70;;;19.90;43.60;19.10;100351.00;;;;5040694;28;20059;-70
2022/04/23 08:22:10;;;;;;;5.57;3.95;;;20.00;43.60;19.10;100351.00;;;;5046700;28;20052;-70
2022/04/23 08:24:56;;;;;;;4.60;3.55;;;20.00;43.60;19.10;100355.00;;;;5035585;28;20052;-70
2022/04/23 08:27:49;;;;;;;4.50;3.60;;;20.00;43.60;19.10;100345.00;;;;5040546;28;20033;-70
2022/04/23 08:30:35;;;;;;;4.60;4.03;;;20.00;43.60;19.10;100347.00;;;;5033417;28;20124;-71
2022/04/23 08:33:21;;;;;;;4.45;3.90;;;20.00;43.50;19.10;100348.00;;;;5034074;28;20044;-72
2022/04/23 08:36:08;;;;;;;3.95;3.55;;;20.00;43.50;19.10;100347.00;;;;5036409;28;20034;-71
2022/04/23 08:38:56;;;;;;;4.35;3.17;;;19.90;43.50;19.10;100350.00;;;;5043575;28;20045;-70
2022/04/23 08:41:45;;;;;;;7.63;4.53;;;20.00;43.60;19.10;100340.00;;;;5035868;28;20049;-70
2022/04/23 08:44:31;;;;;;;4.82;3.85;;;20.00;43.40;19.10;100340.00;;;;5010876;28;20041;-70
2022/04/23 08:47:19;;;;;;;6.63;4.97;;;20.00;43.40;19.10;100340.00;;;;5042511;28;20041;-70
2022/04/23 08:50:06;;;;;;;4.78;3.90;;;20.00;43.20;19.10;100338.00;;;;5024557;28;20044;-70
2022/04/23 08:52:55;;;;;;;6.93;4.38;;;20.00;43.20;19.10;100332.00;;;;5020405;28;20045;-71
2022/04/23 08:55:44;;;;;;;6.75;4.43;;;20.00;43.20;19.10;100321.00;;;;5033443;28;20991;-71
2022/04/23 08:58:31;;;;;;;7.70;4.47;;;20.00;43.20;19.10;100336.00;;;;5041251;28;20072;-71
2022/04/23 09:01:21;;;;;;;7.60;4.57;;;20.00;43.10;19.10;100337.00;;;;5025703;28;20045;-70
2022/04/23 09:04:08;;;;;;;10.90;5.07;;;20.00;43.10;19.10;100333.00;;;;5008900;28;20053;-70
2022/04/23 09:06:54;;;;;;;8.32;4.68;;;20.10;42.90;19.10;100326.00;;;;5037926;28;20037;-70
2022/04/23 09:09:46;;;;;;;7.55;4.53;;;20.10;43.00;19.10;100332.00;;;;5038622;28;20033;-70
2022/04/23 09:12:32;;;;;;;5.43;4.57;;;20.10;42.80;19.10;100325.00;;;;5033711;28;20148;-71
2022/04/23 09:24:45;;;;;;;7.53;4.70;;;20.10;42.50;19.20;100332.00;;;;5010221;28;20043;-70
2022/04/23 09:27:32;;;;;;;6.47;4.60;;;20.20;42.50;19.20;100333.00;;;;5031628;28;20115;-72
2022/04/23 09:30:18;;;;;;;7.57;4.97;;;20.20;42.50;19.20;100326.00;;;;5014399;28;20075;-71
2022/04/23 09:33:05;;;;;;;5.40;4.10;;;20.20;42.60;19.20;100334.00;;;;5028737;28;20037;-71
2022/04/23 09:36:02;;;;;;;6.55;4.15;;;20.20;42.50;19.20;100321.00;;;;5043755;28;20041;-71
2022/04/23 09:39:03;;;;;;;5.28;4.20;;;20.20;42.60;19.20;100323.00;;;;5025162;28;20071;-71
2022/04/23 09:41:49;;;;;;;5.10;4.20;;;20.20;42.40;19.20;100335.00;;;;5028261;28;20029;-71
2022/04/23 09:44:35;;;;;;;4.63;3.97;;;20.20;42.50;19.20;100321.00;;;;5037945;28;20048;-71
2022/04/23 09:47:31;;;;;;;5.57;4.00;;;20.20;42.50;19.20;100318.00;;;;5038881;28;20037;-71
2022/04/23 09:50:18;;;;;;;6.85;4.00;;;20.20;42.40;19.20;100313.00;;;;5002127;28;20045;-70
2022/04/23 09:53:27;;;;;;;7.05;4.15;;;20.20;42.50;19.20;100312.00;;;;5039022;28;20172;-70
2022/04/23 09:56:13;;;;;;;;;;;20.20;42.50;19.20;100317.00;;;;5029558;28;20632;-70
2022/04/23 09:58:59;;;;;;;7.57;4.22;;;20.20;42.70;19.20;100322.00;;;;5026341;28;19919;-70
2022/04/23 10:01:47;;;;;;;7.30;3.90;;;20.20;42.40;19.20;100307.00;;;;5019935;28;20490;-70
2022/04/23 10:04:33;;;;;;;7.70;4.28;;;20.20;42.50;19.20;100318.00;;;;5021533;28;20029;-71
2022/04/23 10:07:20;;;;;;;5.18;4.20;;;20.20;42.40;19.20;100303.00;;;;5024283;28;20045;-71
2022/04/23 10:10:08;;;;;;;8.00;4.45;;;20.20;42.40;19.20;100312.00;;;;5011712;28;20116;-71
2022/04/23 10:12:54;;;;;;;7.50;4.50;;;20.20;42.30;19.20;100309.00;;;;5028413;28;20064;-71
2022/04/23 10:15:41;;;;;;;9.73;4.50;;;20.20;42.20;19.20;100304.00;;;;5023259;28;20051;-70
2022/04/23 10:18:27;;;;;;;7.30;4.20;;;20.20;42.20;19.20;100309.00;;;;5021344;28;20056;-70
2022/04/23 10:21:30;;;;;;;5.25;4.50;;;20.20;42.20;19.20;100299.00;;;;5038157;28;20114;-71
2022/04/23 10:24:21;;;;;;;7.05;4.30;;;20.20;42.00;19.20;100313.00;;;;5032350;28;20131;-71
2022/04/23 10:27:09;;;;;;;8.30;4.65;;;20.30;42.20;19.30;100301.00;;;;5031485;28;20071;-73
2022/04/23 10:29:56;;;;;;;;;;;20.30;42.00;19.20;100304.00;;;;5037161;28;20071;-77
2022/04/23 10:32:43;;;;;;;6.57;4.00;;;20.40;42.30;19.20;100313.00;;;;5022503;28;19924;-71
2022/04/23 10:35:29;;;;;;;4.85;3.97;;;20.40;41.90;19.20;100305.00;;;;5024021;28;20045;-71
2022/04/23 10:38:19;;;;;;;5.82;3.75;;;20.30;41.80;19.30;100312.00;;;;5044281;28;20037;-71
2022/04/23 10:41:06;;;;;;;5.50;3.78;;;20.30;41.80;19.30;100310.00;;;;5027382;28;20041;-70
2022/04/23 10:43:58;;;;;;;4.97;3.65;;;20.30;41.90;19.30;100309.00;;;;5010242;28;20060;-71
2022/04/23 10:46:44;;;;;;;5.82;3.88;;;20.30;41.90;19.30;100301.00;;;;5022176;28;20419;-73
2022/04/23 10:49:30;;;;;;;5.80;4.10;;;20.40;42.00;19.30;100308.00;;;;5033095;28;20051;-71
2022/04/23 10:52:34;;;;;;;9.23;4.05;;;20.30;41.80;19.30;100302.00;;;;5043027;28;20090;-71
2022/04/23 10:55:21;;;;;;;12.73;4.88;;;20.30;42.00;19.30;100306.00;;;;5040677;28;20124;-77
2022/04/23 10:58:23;;;;;;;10.00;5.00;;;20.40;41.50;19.30;100291.00;;;;5020545;28;20124;-77
2022/04/23 11:01:21;;;;;;;14.63;5.53;;;20.40;41.30;19.40;100304.00;;;;5032156;28;20319;-71
2022/04/23 11:04:07;;;;;;;7.32;5.05;;;20.30;41.20;19.40;100301.00;;;;5019165;28;20048;-71
2022/04/23 11:13:05;;;;;;;7.85;4.05;;;20.40;41.40;19.40;100305.00;;;;5042566;28;20041;-71
2022/04/23 11:16:19;;;;;;;6.28;4.20;;;20.40;41.30;19.40;100301.00;;;;5017417;28;20102;-71
2022/04/23 11:19:07;;;;;;;9.63;4.20;;;20.40;41.30;19.40;100294.00;;;;5036813;28;20041;-71
2022/04/23 11:21:53;;;;;;;6.47;4.25;;;20.40;41.30;19.40;100297.00;;;;5031409;28;20690;-71
2022/04/23 11:24:39;;;;;;;9.43;4.57;;;20.50;41.30;19.40;100296.00;;;;5010296;28;20044;-71
2022/04/23 11:27:32;;;;;;;11.40;4.20;;;20.40;41.20;19.40;100292.00;;;;5014573;28;20533;-71
2022/04/23 11:30:28;;;;;;;6.00;4.03;;;20.40;41.30;19.40;100284.00;;;;5037302;28;20048;-71
2022/04/23 11:33:14;;;;;;;5.85;4.20;;;20.40;41.20;19.40;100284.00;;;;5037244;28;20087;-71
2022/04/23 11:36:00;;;;;;;7.95;4.10;;;20.50;41.20;19.40;100284.00;;;;5038276;28;20474;-74
2022/04/23 11:38:46;;;;;;;9.48;3.65;;;20.50;41.20;19.40;100284.00;;;;5023233;28;20033;-71
2022/04/23 11:41:38;;;;;;;5.40;3.38;;;20.50;41.20;19.50;100286.00;;;;5018136;28;20041;-71
2022/04/23 11:47:30;;;;;;;5.75;3.30;;;20.50;41.10;19.50;100282.00;;;;5045391;28;20043;-72
2022/04/23 11:50:23;;;;;;;6.50;4.35;;;20.50;41.00;19.40;100276.00;;;;5032156;28;20040;-70
2022/04/23 11:53:10;;;;;;;5.15;3.45;;;20.50;41.00;19.50;100269.00;;;;5047462;28;20087;-71
2022/04/23 11:55:56;;;;;;;4.40;3.42;;;20.60;41.00;19.50;100261.00;;;;5040096;28;20935;-72
2022/04/23 11:58:42;;;;;;;5.70;3.78;;;20.50;40.90;19.50;100268.00;;;;5036177;28;20127;-71
2022/04/23 12:01:28;;;;;;;5.40;3.40;;;20.50;40.90;19.50;100269.00;;;;5029972;28;20382;-72
2022/04/23 12:04:14;;;;;;;5.28;3.75;;;20.60;40.90;19.50;100268.00;;;;5041161;28;20096;-74
2022/04/23 12:07:01;;;;;;;6.25;3.55;;;20.60;40.80;19.50;100260.00;;;;5038306;28;20044;-76
2022/04/23 12:09:54;;;;;;;4.10;3.20;;;20.60;40.80;19.50;100256.00;;;;5029680;28;20055;-75
2022/04/23 12:12:42;;;;;;;4.15;3.35;;;20.60;40.60;19.50;100263.00;;;;5012274;28;20036;-75
2022/04/23 12:15:28;;;;;;;4.28;3.25;;;20.60;40.70;19.50;100269.00;;;;5021387;28;20033;-75
2022/04/23 12:18:19;;;;;;;4.18;3.38;;;20.60;40.60;19.50;100259.00;;;;5046303;28;20483;-75
2022/04/23 12:21:08;;;;;;;6.40;3.55;;;20.60;40.60;19.50;100266.00;;;;5043445;28;20071;-75
2022/04/23 12:23:54;;;;;;;5.20;2.97;;;20.60;40.60;19.50;100255.00;;;;5021830;28;20045;-75
2022/04/23 12:26:40;;;;;;;5.07;2.92;;;20.60;40.60;19.50;100246.00;;;;5043734;28;20045;-74
2022/04/23 12:42:00;;;;;;;5.72;3.42;;;20.70;40.30;19.50;100242.00;;;;5019141;28;20041;-75
2022/04/23 12:44:46;;;;;;;3.10;2.80;;;20.70;40.20;19.50;100245.00;;;;5024563;28;20383;-75
2022/04/23 12:47:36;;;;;;;3.45;3.05;;;20.70;40.20;19.50;100235.00;;;;5029213;28;20048;-75
2022/04/23 12:50:27;;;;;;;4.28;2.63;;;20.70;40.10;19.50;100241.00;;;;5024118;28;20037;-75
2022/04/23 12:53:34;;;;;;;4.00;2.72;;;20.70;40.00;19.50;100234.00;;;;5046684;28;20378;-75
2022/04/23 12:56:34;;;;;;;4.32;3.20;;;20.70;40.00;19.50;100235.00;;;;5029244;28;20056;-75